Time;durP1;ratioP1;P1;durP2;ratioP2;P2;SDS_P1;SDS_P2;PMS_P1;PMS_P2;Temp;Humidity;BMP_temperature;BMP_pressure;BME280_temperature;BME280_humidity;BME280_pressure;Samples;Min_cycle;Max_cycle;Signal;HPM_P1;HPM_P2
2023/08/23 00:01:32;;;;;;;7.03;6.20;;;;;;;32.11;32.75;96424.84;5079556;28;20115;-30
2023/08/23 00:03:58;;;;;;;7.05;6.05;;;;;;;31.90;33.10;96421.63;5079934;28;20043;-30
2023/08/23 00:06:23;;;;;;;8.10;6.13;;;;;;;32.22;32.53;96416.00;5079830;28;20065;-30
2023/08/23 00:08:49;;;;;;;7.45;6.03;;;;;;;32.20;33.04;96415.06;5073243;28;20074;-30
2023/08/23 00:11:15;;;;;;;6.25;5.65;;;;;;;32.20;32.40;96412.28;5083806;28;20062;-30
2023/08/23 00:13:40;;;;;;;7.75;6.00;;;;;;;31.94;32.39;96410.75;5084094;28;20488;-30
2023/08/23 00:16:06;;;;;;;7.63;5.85;;;;;;;31.96;32.07;96413.72;5083105;28;20541;-30
2023/08/23 00:18:31;;;;;;;6.15;5.55;;;;;;;32.06;31.93;96412.53;5074672;28;20020;-30
2023/08/23 00:20:57;;;;;;;7.65;5.53;;;;;;;32.15;32.09;96418.84;5083424;28;20024;-30
2023/08/23 00:23:22;;;;;;;7.85;5.97;;;;;;;31.90;32.00;96413.94;5083164;28;20021;-30
2023/08/23 00:25:48;;;;;;;7.90;6.18;;;;;;;31.95;32.31;96412.97;5083654;28;20020;-31
2023/08/23 00:28:15;;;;;;;6.93;6.22;;;;;;;31.91;32.30;96407.00;5083627;28;20377;-30
2023/08/23 00:30:51;;;;;;;7.07;6.13;;;;;;;31.99;32.44;96404.19;5083771;28;20035;-30
2023/08/23 00:33:16;;;;;;;6.93;5.45;;;;;;;31.87;32.61;96398.28;5088478;28;20382;-30
2023/08/23 00:35:42;;;;;;;6.55;5.47;;;;;;;31.89;32.01;96400.50;5083278;28;20023;-30
2023/08/23 00:38:07;;;;;;;7.20;6.03;;;;;;;32.02;32.31;96398.16;5079050;28;20048;-30
2023/08/23 00:40:32;;;;;;;6.47;5.68;;;;;;;32.01;31.87;96393.13;5080459;28;20036;-30
2023/08/23 00:42:58;;;;;;;6.35;5.28;;;;;;;31.96;32.20;96399.69;5090770;28;20023;-30
2023/08/23 00:45:23;;;;;;;6.88;6.10;;;;;;;31.96;32.54;96400.44;5082675;28;20070;-30
2023/08/23 00:47:49;;;;;;;5.90;5.30;;;;;;;31.94;32.07;96399.53;5083029;28;20054;-30
2023/08/23 00:50:15;;;;;;;6.55;5.88;;;;;;;31.88;32.26;96402.56;5083380;28;20028;-30
2023/08/23 00:52:41;;;;;;;7.53;6.00;;;;;;;31.63;32.47;96391.28;5088631;28;20019;-30
2023/08/23 00:55:07;;;;;;;9.52;5.90;;;;;;;31.78;32.53;96390.47;5083945;28;20462;-31
2023/08/23 00:57:33;;;;;;;12.63;5.78;;;;;;;31.95;32.24;96393.34;5080079;28;20028;-31
2023/08/23 00:59:59;;;;;;;7.10;5.70;;;;;;;31.80;32.45;96398.31;5078612;28;20032;-30
2023/08/23 01:02:24;;;;;;;7.03;6.20;;;;;;;31.86;32.66;96393.22;5085241;28;20016;-30
2023/08/23 01:04:50;;;;;;;6.50;5.65;;;;;;;32.01;31.74;96390.31;5085781;28;20045;-30
2023/08/23 01:07:21;;;;;;;9.52;6.25;;;;;;;31.86;31.87;96396.03;5084280;28;20026;-31
2023/08/23 01:10:11;;;;;;;7.55;6.05;;;;;;;31.88;32.34;96399.00;5074916;28;20023;-30
2023/08/23 01:12:45;;;;;;;7.60;5.80;;;;;;;31.91;32.28;96400.66;5082981;28;20024;-30
2023/08/23 01:15:12;;;;;;;9.52;5.60;;;;;;;31.78;32.45;96402.41;5082351;28;20419;-31
2023/08/23 01:17:43;;;;;;;6.35;5.78;;;;;;;31.99;32.15;96393.69;5082841;28;20130;-31
2023/08/23 01:20:10;;;;;;;7.57;5.72;;;;;;;31.72;32.27;96395.56;5080468;28;20020;-31
2023/08/23 01:22:38;;;;;;;8.10;6.32;;;;;;;32.01;31.88;96395.94;5082890;28;20020;-30
2023/08/23 01:25:05;;;;;;;7.50;5.72;;;;;;;31.86;31.80;96398.84;5079524;28;20023;-30
2023/08/23 01:27:32;;;;;;;7.35;6.07;;;;;;;31.74;32.39;96399.28;5077242;28;20020;-30
2023/08/23 01:29:58;;;;;;;6.97;5.78;;;;;;;31.80;32.55;96395.50;5085516;28;20024;-30
2023/08/23 01:32:35;;;;;;;7.07;5.72;;;;;;;31.69;31.71;96396.69;5085256;28;20024;-31
2023/08/23 01:35:24;;;;;;;7.13;5.75;;;;;;;31.67;32.04;96402.13;5073616;28;20416;-31
2023/08/23 01:37:54;;;;;;;6.32;5.72;;;;;;;31.65;32.67;96396.34;5082239;28;20052;-30
2023/08/23 01:40:20;;;;;;;7.80;5.97;;;;;;;31.62;32.39;96401.00;5085155;28;20149;-30
2023/08/23 01:42:47;;;;;;;6.90;5.53;;;;;;;31.64;32.60;96398.41;5076923;28;20062;-30
2023/08/23 01:45:12;;;;;;;6.72;5.95;;;;;;;31.77;32.04;96406.53;5085295;28;20476;-30
2023/08/23 01:47:38;;;;;;;6.75;5.57;;;;;;;31.71;32.20;96394.81;5079038;28;20021;-30
2023/08/23 01:50:04;;;;;;;6.30;5.70;;;;;;;31.74;32.44;96402.09;5074306;28;20020;-30
2023/08/23 01:52:30;;;;;;;9.57;6.20;;;;;;;31.76;31.93;96402.28;5081965;28;20110;-30
2023/08/23 01:54:55;;;;;;;7.53;5.88;;;;;;;31.60;32.01;96395.22;5081317;28;20038;-30
2023/08/23 01:57:21;;;;;;;6.47;5.88;;;;;;;31.64;32.04;96392.06;5084311;28;20019;-30
2023/08/23 01:59:49;;;;;;;7.82;6.05;;;;;;;31.65;31.91;96397.06;5084827;28;20020;-30
2023/08/23 02:02:15;;;;;;;5.85;5.30;;;;;;;31.68;32.38;96400.81;5083697;28;20070;-30
2023/08/23 02:04:40;;;;;;;6.40;5.85;;;;;;;31.71;32.19;96399.69;5080867;28;20470;-31
2023/08/23 02:07:06;;;;;;;7.93;6.28;;;;;;;31.57;32.06;96401.97;5081118;28;20032;-30
2023/08/23 02:09:33;;;;;;;6.50;5.90;;;;;;;31.62;32.10;96403.81;5083298;28;20091;-30
2023/08/23 02:11:58;;;;;;;6.13;5.50;;;;;;;31.52;32.37;96394.53;5084564;28;20552;-30
2023/08/23 02:14:24;;;;;;;6.15;5.50;;;;;;;31.65;32.42;96399.88;5074202;28;20056;-30
2023/08/23 02:16:49;;;;;;;7.25;6.53;;;;;;;31.46;32.38;96401.66;5081276;28;20489;-31
2023/08/23 02:19:15;;;;;;;6.80;5.80;;;;;;;31.64;32.30;96398.41;5081317;28;20012;-30
2023/08/23 02:21:40;;;;;;;6.47;5.72;;;;;;;31.49;32.43;96400.53;5074896;28;21009;-30
2023/08/23 02:24:07;;;;;;;8.60;5.97;;;;;;;31.56;32.02;96403.28;5079130;28;20032;-30
2023/08/23 02:26:35;;;;;;;6.35;5.32;;;;;;;31.49;32.80;96409.69;5080499;28;20032;-30
2023/08/23 02:29:01;;;;;;;10.10;5.95;;;;;;;31.56;31.91;96410.94;5077258;28;20023;-30
2023/08/23 02:31:26;;;;;;;6.78;5.93;;;;;;;31.50;32.15;96407.63;5077110;28;20024;-30
2023/08/23 02:33:52;;;;;;;7.07;5.80;;;;;;;31.55;32.02;96404.59;5081477;28;20375;-30
2023/08/23 02:36:17;;;;;;;7.10;6.10;;;;;;;31.57;32.27;96413.19;5080738;28;20111;-30
2023/08/23 02:38:42;;;;;;;6.63;5.93;;;;;;;31.58;31.81;96411.88;5081083;28;20083;-30
2023/08/23 02:41:08;;;;;;;7.20;5.75;;;;;;;31.58;31.70;96417.47;5084035;28;20015;-30
2023/08/23 02:43:34;;;;;;;6.72;5.43;;;;;;;31.57;31.74;96409.63;5085080;28;20013;-30
2023/08/23 02:45:59;;;;;;;6.75;6.03;;;;;;;31.57;32.03;96401.97;5080811;28;20065;-30
2023/08/23 02:48:24;;;;;;;8.52;5.35;;;;;;;31.58;32.20;96411.13;5078257;28;20493;-30
2023/08/23 02:50:50;;;;;;;7.55;6.35;;;;;;;31.34;32.18;96404.88;5083968;28;20480;-30
2023/08/23 02:53:15;;;;;;;6.57;5.97;;;;;;;31.37;31.97;96403.75;5080933;28;20020;-30
2023/08/23 02:55:41;;;;;;;7.28;5.90;;;;;;;31.36;31.95;96404.31;5086286;28;20419;-30
2023/08/23 02:58:06;;;;;;;6.47;5.78;;;;;;;31.42;31.93;96407.63;5075479;28;20515;-30
2023/08/23 03:00:33;;;;;;;7.30;6.43;;;;;;;31.34;32.02;96406.94;5079992;28;20020;-31
2023/08/23 03:02:58;;;;;;;6.55;5.85;;;;;;;31.55;32.04;96410.19;5080402;28;20020;-31
2023/08/23 03:05:24;;;;;;;6.90;5.85;;;;;;;31.50;32.60;96407.63;5080693;28;20069;-30
2023/08/23 03:08:09;;;;;;;6.80;5.75;;;;;;;31.44;32.22;96416.22;5078795;28;20016;-30
2023/08/23 03:14:05;;;;;;;7.90;5.50;;;;;;;31.39;32.09;96414.41;5086844;28;20078;-30
2023/08/23 03:16:30;;;;;;;6.18;5.68;;;;;;;31.36;31.70;96410.66;5081274;28;20032;-30
2023/08/23 03:18:55;;;;;;;7.50;6.15;;;;;;;31.21;32.16;96413.53;5084861;28;20097;-30
2023/08/23 03:21:21;;;;;;;8.60;5.85;;;;;;;31.29;32.11;96430.28;5083447;28;20032;-30
2023/08/23 03:23:46;;;;;;;6.75;6.15;;;;;;;31.27;32.12;96421.72;5076133;28;20013;-30
2023/08/23 03:26:12;;;;;;;8.02;6.22;;;;;;;31.33;31.94;96417.41;5083130;28;20027;-31
2023/08/23 03:28:37;;;;;;;6.40;5.78;;;;;;;31.28;31.87;96415.53;5082350;28;20027;-30
2023/08/23 03:31:03;;;;;;;6.03;5.30;;;;;;;31.23;32.15;96416.50;5083368;28;20032;-30
2023/08/23 03:33:30;;;;;;;6.70;5.80;;;;;;;31.29;32.17;96419.09;5076495;28;20028;-30
2023/08/23 03:35:55;;;;;;;8.95;5.57;;;;;;;31.33;32.04;96420.19;5080344;28;20038;-31
2023/08/23 03:38:21;;;;;;;6.25;5.72;;;;;;;31.39;31.62;96420.00;5077440;28;20036;-30
2023/08/23 03:40:46;;;;;;;6.13;5.53;;;;;;;31.18;31.88;96427.91;5082902;28;20393;-30
2023/08/23 03:43:12;;;;;;;5.60;5.10;;;;;;;31.30;31.64;96434.59;5080305;28;20387;-30
2023/08/23 03:45:45;;;;;;;6.20;5.60;;;;;;;31.34;31.56;96432.16;5083822;28;20052;-30
2023/08/23 03:48:10;;;;;;;7.85;5.65;;;;;;;31.29;31.98;96433.84;5091644;28;20021;-32
2023/08/23 03:50:36;;;;;;;6.18;5.57;;;;;;;31.41;31.63;96434.16;5076574;28;20462;-30
2023/08/23 03:53:01;;;;;;;8.40;5.07;;;;;;;31.44;31.46;96430.25;5084237;28;20017;-30
2023/08/23 03:55:27;;;;;;;9.88;5.47;;;;;;;31.44;31.30;96433.03;5092002;28;20074;-30
2023/08/23 03:57:52;;;;;;;10.80;5.70;;;;;;;31.24;31.24;96436.88;5084354;28;20389;-30
2023/08/23 04:00:18;;;;;;;6.50;5.47;;;;;;;31.25;31.71;96432.75;5083621;28;20690;-30
2023/08/23 04:02:43;;;;;;;8.60;5.95;;;;;;;31.36;31.14;96426.72;5089181;28;20008;-30
2023/08/23 04:05:11;;;;;;;7.07;5.40;;;;;;;31.48;31.41;96436.22;5086183;28;20419;-30
2023/08/23 04:07:40;;;;;;;8.05;5.65;;;;;;;31.34;31.29;96432.16;5084039;28;20111;-30
2023/08/23 04:10:06;;;;;;;6.30;5.70;;;;;;;31.16;31.30;96442.47;5084069;28;20056;-31
2023/08/23 04:12:32;;;;;;;10.32;6.20;;;;;;;31.30;31.31;96437.38;5085820;28;20075;-30
2023/08/23 04:14:58;;;;;;;5.88;5.28;;;;;;;31.19;31.76;96441.34;5089287;28;20079;-30
2023/08/23 04:17:26;;;;;;;6.78;5.75;;;;;;;31.45;31.20;96437.34;5083307;28;20074;-29
2023/08/23 04:19:51;;;;;;;7.65;5.63;;;;;;;31.24;31.60;96440.41;5090648;28;20016;-30
2023/08/23 04:22:17;;;;;;;5.70;5.20;;;;;;;31.21;31.83;96440.78;5083484;28;20023;-30
2023/08/23 04:24:42;;;;;;;6.65;5.47;;;;;;;31.31;31.28;96445.25;5083248;28;20035;-30
2023/08/23 04:27:08;;;;;;;6.22;5.45;;;;;;;31.20;31.83;96447.69;5083369;28;20021;-30
2023/08/23 04:29:34;;;;;;;6.50;5.28;;;;;;;31.10;31.99;96444.00;5075945;28;20021;-30
2023/08/23 04:31:59;;;;;;;8.35;5.90;;;;;;;31.17;31.75;96449.56;5082957;28;20024;-30
2023/08/23 04:34:24;;;;;;;6.15;5.60;;;;;;;31.36;31.54;96438.69;5089545;28;20331;-30
2023/08/23 04:36:50;;;;;;;15.65;6.22;;;;;;;31.16;31.65;96444.56;5085450;28;20112;-30
2023/08/23 04:39:15;;;;;;;9.52;6.10;;;;;;;31.06;31.98;96445.09;5086262;28;20052;-30
2023/08/23 04:41:41;;;;;;;8.70;5.90;;;;;;;31.27;31.44;96458.16;5078924;28;20021;-30
2023/08/23 04:44:06;;;;;;;6.13;5.20;;;;;;;31.12;31.16;96455.41;5083424;28;20465;-30
2023/08/23 04:46:32;;;;;;;6.78;6.18;;;;;;;31.13;31.91;96448.47;5083016;28;20058;-30
2023/08/23 04:48:57;;;;;;;6.07;5.45;;;;;;;31.10;31.48;96455.97;5082676;28;20081;-30
2023/08/23 04:51:23;;;;;;;7.07;5.90;;;;;;;31.05;31.92;96459.66;5082597;28;20038;-30
2023/08/23 04:53:49;;;;;;;8.73;5.80;;;;;;;31.18;31.69;96456.66;5082558;28;20016;-30
2023/08/23 04:56:14;;;;;;;6.53;5.80;;;;;;;30.97;31.83;96462.50;5077648;28;20119;-30
2023/08/23 04:58:40;;;;;;;6.10;5.50;;;;;;;31.13;31.10;96456.88;5086492;28;20020;-30
2023/08/23 05:01:05;;;;;;;6.57;5.30;;;;;;;31.04;31.13;96453.31;5078357;28;20416;-30
2023/08/23 05:03:35;;;;;;;6.45;5.85;;;;;;;31.16;31.09;96453.69;5089996;28;20016;-30
2023/08/23 05:06:02;;;;;;;6.45;5.40;;;;;;;31.05;31.23;96454.06;5082679;28;20489;-30
2023/08/23 05:08:28;;;;;;;6.57;5.40;;;;;;;31.10;31.07;96461.56;5081989;28;20032;-31
2023/08/23 05:10:55;;;;;;;6.05;5.45;;;;;;;31.04;31.19;96458.91;5082952;28;20060;-30
2023/08/23 05:13:22;;;;;;;7.20;5.55;;;;;;;31.02;31.19;96464.34;5082305;28;20074;-30
2023/08/23 05:15:54;;;;;;;6.82;5.25;;;;;;;30.98;31.84;96458.38;5082812;28;20335;-30
2023/08/23 05:18:20;;;;;;;7.97;5.47;;;;;;;31.00;31.33;96452.97;5082316;28;20377;-30
2023/08/23 05:20:46;;;;;;;7.43;5.80;;;;;;;31.11;31.35;96463.06;5082838;28;20020;-30
2023/08/23 05:23:11;;;;;;;5.97;5.40;;;;;;;31.29;31.28;96467.47;5082206;28;20031;-30
2023/08/23 05:25:37;;;;;;;5.97;5.38;;;;;;;31.42;31.15;96463.69;5082925;28;20020;-30
2023/08/23 05:28:02;;;;;;;6.68;5.35;;;;;;;31.18;31.66;96462.28;5082782;28;20032;-30
2023/08/23 05:30:28;;;;;;;9.52;5.45;;;;;;;31.42;30.74;96458.81;5081624;28;20025;-30
2023/08/23 05:32:53;;;;;;;6.28;5.68;;;;;;;31.26;31.43;96465.06;5084369;28;20043;-31
2023/08/23 05:35:19;;;;;;;5.78;5.07;;;;;;;31.18;31.68;96469.94;5087357;28;20381;-31
2023/08/23 05:37:44;;;;;;;7.05;5.88;;;;;;;30.98;32.17;96466.78;5089242;28;20028;-30
2023/08/23 05:40:10;;;;;;;6.28;5.60;;;;;;;31.08;31.98;96467.69;5082508;28;20036;-30
2023/08/23 05:42:35;;;;;;;7.78;5.80;;;;;;;31.28;31.65;96465.97;5088491;28;20077;-30
2023/08/23 05:45:01;;;;;;;7.97;5.43;;;;;;;31.32;31.75;96471.19;5082861;28;20030;-30
2023/08/23 05:47:26;;;;;;;8.40;5.53;;;;;;;31.38;31.37;96468.94;5081645;28;20107;-30
2023/08/23 05:49:52;;;;;;;6.53;5.60;;;;;;;31.44;31.49;96466.66;5081424;28;20043;-30
2023/08/23 05:52:17;;;;;;;6.20;5.38;;;;;;;31.50;31.72;96477.69;5084453;28;20020;-30
2023/08/23 05:54:43;;;;;;;6.05;5.45;;;;;;;31.46;31.43;96474.53;5077673;28;20013;-30
2023/08/23 05:57:08;;;;;;;12.77;5.50;;;;;;;31.38;31.88;96468.94;5074727;28;20386;-30
2023/08/23 05:59:34;;;;;;;6.85;5.28;;;;;;;31.33;32.13;96467.09;5081878;28;20012;-30
2023/08/23 06:01:59;;;;;;;5.97;5.38;;;;;;;31.56;32.06;96467.75;5081743;28;20024;-31
2023/08/23 06:04:25;;;;;;;6.72;5.38;;;;;;;31.38;31.49;96466.16;5081300;28;20044;-30
2023/08/23 06:06:50;;;;;;;7.30;5.28;;;;;;;31.49;31.82;96473.41;5073609;28;20024;-30
2023/08/23 06:09:17;;;;;;;6.10;5.50;;;;;;;31.50;31.57;96472.81;5081438;28;20024;-30
2023/08/23 06:11:43;;;;;;;6.18;5.57;;;;;;;31.56;31.93;96476.16;5080926;28;20166;-32
2023/08/23 06:14:19;;;;;;;5.78;5.20;;;;;;;31.55;31.73;96471.84;5074453;28;20099;-30
2023/08/23 06:16:45;;;;;;;6.15;5.55;;;;;;;31.38;31.82;96474.56;5077681;28;20377;-30
2023/08/23 06:19:11;;;;;;;7.90;5.60;;;;;;;31.46;32.13;96478.06;5078134;28;20025;-30
2023/08/23 06:21:37;;;;;;;6.03;5.43;;;;;;;31.41;32.01;96474.16;5073728;28;20389;-30
2023/08/23 06:24:03;;;;;;;6.57;5.53;;;;;;;31.42;32.14;96478.44;5079626;28;20493;-30
2023/08/23 06:26:29;;;;;;;8.35;5.80;;;;;;;31.28;32.38;96485.59;5080920;28;20060;-30
2023/08/23 06:28:54;;;;;;;6.97;5.35;;;;;;;31.50;31.84;96483.28;5081294;28;20050;-30
2023/08/23 06:31:20;;;;;;;9.13;5.45;;;;;;;31.63;31.99;96483.81;5081248;28;20028;-30
2023/08/23 06:33:46;;;;;;;6.72;5.30;;;;;;;31.72;31.87;96480.41;5081792;28;20028;-30
2023/08/23 06:36:11;;;;;;;7.03;5.70;;;;;;;31.69;31.53;96487.16;5084248;28;20024;-30
2023/08/23 06:38:37;;;;;;;6.18;5.07;;;;;;;31.65;31.49;96492.41;5083577;28;20048;-30
2023/08/23 06:41:02;;;;;;;6.78;5.30;;;;;;;31.60;31.67;96484.19;5080560;28;20024;-30
2023/08/23 06:43:28;;;;;;;7.55;5.75;;;;;;;31.58;31.58;96487.56;5078653;28;20037;-31
2023/08/23 06:45:53;;;;;;;7.28;5.40;;;;;;;31.75;31.47;96489.75;5075929;28;20388;-31
2023/08/23 06:48:19;;;;;;;7.38;5.30;;;;;;;31.78;31.60;96483.75;5088379;28;20490;-30
2023/08/23 06:50:44;;;;;;;8.48;5.35;;;;;;;31.88;32.12;96483.91;5073470;28;20474;-32
2023/08/23 06:53:10;;;;;;;8.35;5.38;;;;;;;31.76;32.15;96489.19;5082471;28;20048;-30
2023/08/23 06:55:40;;;;;;;6.30;5.30;;;;;;;31.72;32.04;96491.63;5078960;28;20059;-30
2023/08/23 06:58:05;;;;;;;5.95;5.35;;;;;;;31.69;32.09;96487.16;5087846;28;20431;-30
2023/08/23 07:00:31;;;;;;;5.75;5.07;;;;;;;31.79;32.16;96490.09;5073259;28;20021;-31
2023/08/23 07:02:56;;;;;;;7.13;5.45;;;;;;;31.83;31.51;96489.72;5080253;28;20028;-31
2023/08/23 07:05:22;;;;;;;7.03;5.65;;;;;;;31.80;32.02;96490.84;5073821;28;20029;-30
2023/08/23 07:07:47;;;;;;;10.45;5.32;;;;;;;31.92;32.45;96492.66;5080585;28;20017;-31
2023/08/23 07:10:13;;;;;;;8.90;5.75;;;;;;;31.97;31.69;96493.75;5079971;28;20511;-30
2023/08/23 07:12:38;;;;;;;7.25;5.57;;;;;;;32.01;31.62;96494.13;5075928;28;20389;-30
2023/08/23 07:15:04;;;;;;;6.93;5.25;;;;;;;31.89;32.23;96490.25;5085602;28;20032;-30
2023/08/23 07:17:30;;;;;;;9.40;5.50;;;;;;;31.97;32.72;96488.16;5080873;28;20035;-30
2023/08/23 07:19:55;;;;;;;8.10;6.10;;;;;;;31.98;32.06;96490.38;5080152;28;20020;-30
2023/08/23 07:22:21;;;;;;;7.15;5.90;;;;;;;32.04;31.25;96504.19;5080260;28;20036;-30
2023/08/23 07:24:46;;;;;;;6.05;5.53;;;;;;;32.09;31.45;96495.56;5075458;28;20024;-30
2023/08/23 07:27:12;;;;;;;9.23;5.57;;;;;;;31.94;32.12;96494.88;5083298;28;20028;-30
2023/08/23 07:29:37;;;;;;;5.78;5.25;;;;;;;32.09;32.07;96494.81;5074930;28;20115;-30
2023/08/23 07:32:04;;;;;;;6.18;5.68;;;;;;;32.16;31.88;96499.63;5080448;28;20119;-30
2023/08/23 07:34:29;;;;;;;6.32;5.72;;;;;;;32.07;32.07;96503.03;5080875;28;20020;-30
2023/08/23 07:36:55;;;;;;;6.28;5.70;;;;;;;32.08;32.67;96499.66;5080546;28;20063;-30
2023/08/23 07:39:20;;;;;;;6.70;6.10;;;;;;;32.07;32.33;96497.44;5085013;28;20032;-30
2023/08/23 07:41:46;;;;;;;7.75;5.82;;;;;;;32.12;32.00;96502.09;5082244;28;20020;-30
2023/08/23 07:44:11;;;;;;;7.65;5.80;;;;;;;32.23;32.03;96512.16;5080384;28;20070;-30
2023/08/23 07:46:37;;;;;;;7.13;6.53;;;;;;;32.19;32.04;96515.34;5080455;28;20017;-30
2023/08/23 07:49:02;;;;;;;5.95;5.45;;;;;;;32.23;31.59;96512.91;5081517;28;20397;-30
2023/08/23 07:51:28;;;;;;;6.82;5.72;;;;;;;32.28;32.05;96516.78;5087120;28;20482;-31
2023/08/23 07:53:53;;;;;;;7.55;5.63;;;;;;;32.25;31.81;96515.13;5080059;28;20492;-30
2023/08/23 07:56:19;;;;;;;6.68;6.07;;;;;;;32.20;32.25;96522.44;5087425;28;20047;-30
2023/08/23 07:58:44;;;;;;;6.57;5.90;;;;;;;32.22;32.08;96519.81;5078009;28;20103;-30
2023/08/23 08:01:10;;;;;;;6.85;6.18;;;;;;;32.17;31.98;96520.00;5074477;28;20474;-30
2023/08/23 08:03:35;;;;;;;7.72;6.57;;;;;;;32.22;32.33;96519.81;5079805;28;20458;-30
2023/08/23 08:06:01;;;;;;;8.70;5.82;;;;;;;32.13;31.88;96518.34;5087152;28;20376;-30
2023/08/23 08:08:26;;;;;;;6.25;5.65;;;;;;;32.31;31.86;96524.81;5080433;28;20040;-30
2023/08/23 08:10:51;;;;;;;10.73;6.18;;;;;;;32.25;31.80;96524.31;5080195;28;20031;-30
2023/08/23 08:13:17;;;;;;;8.48;6.20;;;;;;;32.25;31.86;96523.56;5079725;28;20028;-30
2023/08/23 08:15:42;;;;;;;6.88;5.70;;;;;;;32.18;31.63;96525.06;5080004;28;20103;-30
2023/08/23 08:18:08;;;;;;;6.22;5.63;;;;;;;32.30;31.26;96526.13;5078860;28;20055;-30
2023/08/23 08:20:33;;;;;;;6.63;5.95;;;;;;;32.31;31.84;96527.63;5082111;28;20040;-30
2023/08/23 08:22:59;;;;;;;8.77;6.47;;;;;;;32.25;32.22;96529.91;5079001;28;20484;-30
2023/08/23 08:25:25;;;;;;;7.38;6.65;;;;;;;32.32;31.88;96528.38;5079687;28;20073;-30
2023/08/23 08:27:51;;;;;;;7.13;6.50;;;;;;;32.34;32.23;96522.94;5079908;28;20480;-30
2023/08/23 08:30:17;;;;;;;8.25;6.65;;;;;;;32.36;32.07;96528.72;5079410;28;20024;-30
2023/08/23 08:32:43;;;;;;;7.72;6.63;;;;;;;32.37;32.69;96519.72;5077264;28;20024;-30
2023/08/23 08:35:09;;;;;;;7.55;6.75;;;;;;;32.30;32.32;96523.31;5083602;28;20017;-30
2023/08/23 08:37:34;;;;;;;10.75;7.50;;;;;;;32.39;32.33;96517.06;5076391;28;20027;-30
2023/08/23 08:40:00;;;;;;;7.65;6.95;;;;;;;32.44;32.20;96523.78;5084945;28;20059;-30
2023/08/23 08:42:26;;;;;;;8.43;7.65;;;;;;;32.36;31.97;96518.25;5086168;28;20035;-31
2023/08/23 08:44:52;;;;;;;8.27;7.00;;;;;;;32.40;31.89;96515.00;5085390;28;20098;-30
2023/08/23 08:47:17;;;;;;;9.15;7.63;;;;;;;32.37;32.21;96516.19;5086653;28;20070;-30
2023/08/23 08:49:43;;;;;;;9.13;8.23;;;;;;;32.42;32.28;96521.56;5079690;28;20024;-30
2023/08/23 08:52:12;;;;;;;8.95;8.05;;;;;;;32.36;32.16;96515.44;5082679;28;20070;-31
2023/08/23 08:54:41;;;;;;;11.10;8.70;;;;;;;32.51;32.09;96516.66;5082712;28;20378;-30
2023/08/23 08:57:08;;;;;;;10.05;7.90;;;;;;;32.50;31.89;96517.97;5083613;28;20119;-30
2023/08/23 08:59:35;;;;;;;8.95;8.05;;;;;;;32.53;32.09;96514.00;5083157;28;20103;-30
2023/08/23 09:02:03;;;;;;;8.88;8.02;;;;;;;32.50;32.03;96517.97;5082734;28;20028;-31
2023/08/23 09:04:28;;;;;;;9.75;7.93;;;;;;;32.47;32.38;96517.78;5085960;28;20381;-30
2023/08/23 09:06:55;;;;;;;8.32;7.53;;;;;;;32.50;32.18;96510.28;5086026;28;20027;-30
2023/08/23 09:09:20;;;;;;;8.85;7.95;;;;;;;32.55;32.44;96516.97;5084407;28;20035;-30
2023/08/23 09:11:46;;;;;;;8.98;8.07;;;;;;;32.57;32.14;96517.16;5083082;28;20103;-30
2023/08/23 09:14:20;;;;;;;9.95;7.78;;;;;;;32.60;32.05;96516.00;5083019;28;20384;-30
2023/08/23 09:16:47;;;;;;;9.82;7.70;;;;;;;32.65;32.11;96527.00;5082704;28;20024;-30
2023/08/23 09:19:13;;;;;;;8.75;7.85;;;;;;;32.55;32.12;96519.78;5089292;28;20466;-30
2023/08/23 09:21:47;;;;;;;9.05;7.43;;;;;;;32.64;32.04;96519.88;5083241;28;20397;-30
2023/08/23 09:24:12;;;;;;;9.10;7.53;;;;;;;32.57;32.15;96526.31;5082509;28;20055;-30
2023/08/23 09:26:39;;;;;;;8.30;7.50;;;;;;;32.62;32.17;96522.53;5082847;28;20024;-31
2023/08/23 09:29:05;;;;;;;9.20;8.18;;;;;;;32.60;31.97;96524.44;5079193;28;20107;-30
2023/08/23 09:31:31;;;;;;;9.20;8.30;;;;;;;32.64;32.37;96519.16;5085136;28;20123;-30
2023/08/23 09:33:57;;;;;;;9.75;7.97;;;;;;;32.63;32.52;96521.22;5084330;28;20020;-31
2023/08/23 09:36:27;;;;;;;9.82;7.38;;;;;;;32.64;32.47;96519.16;5085209;28;20016;-31
2023/08/23 09:38:53;;;;;;;8.60;6.97;;;;;;;32.71;32.34;96516.31;5082157;28;20093;-30
2023/08/23 09:41:19;;;;;;;8.15;7.35;;;;;;;32.71;31.86;96518.34;5080261;28;20413;-30
2023/08/23 09:43:47;;;;;;;10.13;8.10;;;;;;;32.72;32.49;96515.00;5081725;28;20034;-30
2023/08/23 09:46:14;;;;;;;8.60;7.75;;;;;;;32.81;31.80;96508.00;5084734;28;20016;-30
2023/08/23 09:48:41;;;;;;;7.72;7.03;;;;;;;32.78;31.52;96509.88;5085258;28;20100;-30
2023/08/23 09:51:09;;;;;;;7.75;7.05;;;;;;;32.81;31.51;96516.41;5076441;28;20043;-30
2023/08/23 09:53:40;;;;;;;7.57;6.82;;;;;;;32.90;31.53;96510.16;5084898;28;20091;-30
2023/08/23 09:56:07;;;;;;;7.55;6.53;;;;;;;32.83;31.09;96508.16;5091001;28;20020;-30
2023/08/23 09:58:33;;;;;;;7.18;6.47;;;;;;;32.76;31.43;96512.50;5078844;28;20107;-30
2023/08/23 10:00:58;;;;;;;7.68;6.63;;;;;;;32.77;31.37;96505.59;5078080;28;20031;-30
2023/08/23 10:03:25;;;;;;;7.60;6.55;;;;;;;32.83;31.34;96503.28;5088806;28;20946;-30
2023/08/23 10:05:51;;;;;;;7.53;6.43;;;;;;;32.86;30.92;96506.28;5081512;28;20032;-31
2023/08/23 10:08:18;;;;;;;8.35;6.30;;;;;;;32.89;30.20;96499.53;5081021;28;20027;-30
2023/08/23 10:10:44;;;;;;;7.10;6.10;;;;;;;32.95;29.46;96503.56;5081623;28;20048;-30
2023/08/23 10:13:09;;;;;;;7.90;5.75;;;;;;;32.93;28.82;96497.78;5081205;28;20507;-31
2023/08/23 10:15:38;;;;;;;6.03;5.43;;;;;;;32.94;28.74;96496.44;5081564;28;20025;-30
2023/08/23 10:18:09;;;;;;;6.90;5.63;;;;;;;32.99;28.21;96492.66;5079997;28;20016;-31
2023/08/23 10:20:36;;;;;;;7.78;5.65;;;;;;;32.98;28.48;96496.81;5082924;28;20115;-31
2023/08/23 10:23:10;;;;;;;6.80;5.75;;;;;;;33.02;28.41;96499.94;5084843;28;20074;-30
2023/08/23 10:25:37;;;;;;;7.55;6.13;;;;;;;33.01;28.78;96495.63;5082889;28;20425;-30
2023/08/23 10:28:04;;;;;;;6.15;5.57;;;;;;;32.99;28.86;96498.28;5084107;28;20031;-30
2023/08/23 10:30:30;;;;;;;6.97;6.18;;;;;;;32.93;29.36;96485.78;5076863;28;20024;-30
2023/08/23 10:33:16;;;;;;;7.15;5.95;;;;;;;33.03;29.05;96487.38;5081184;28;20023;-31
2023/08/23 10:35:46;;;;;;;6.85;5.45;;;;;;;33.08;28.63;96486.38;5080272;28;20032;-31
2023/08/23 10:38:12;;;;;;;6.13;5.50;;;;;;;33.11;28.78;96479.63;5087581;28;20563;-31
2023/08/23 10:40:40;;;;;;;7.68;6.00;;;;;;;33.07;28.21;96484.91;5081129;28;20032;-30
2023/08/23 10:43:11;;;;;;;7.75;5.15;;;;;;;33.16;27.96;96483.50;5073969;28;20040;-30
2023/08/23 10:46:02;;;;;;;7.97;5.72;;;;;;;33.09;28.04;96479.44;5079527;28;20024;-30
2023/08/23 10:48:28;;;;;;;6.47;5.55;;;;;;;33.26;27.80;96478.72;5086708;28;20474;-30
2023/08/23 10:50:54;;;;;;;7.57;5.65;;;;;;;33.24;27.77;96477.84;5073253;28;20072;-30
2023/08/23 10:53:21;;;;;;;6.70;5.80;;;;;;;33.19;27.52;96477.47;5087575;28;20104;-31
2023/08/23 10:55:48;;;;;;;8.18;5.97;;;;;;;33.27;26.77;96476.66;5087115;28;20074;-31
2023/08/23 10:58:15;;;;;;;5.85;5.25;;;;;;;33.21;26.69;96476.91;5074963;28;20504;-30
2023/08/23 11:00:42;;;;;;;8.32;5.60;;;;;;;33.31;26.06;96477.00;5091188;28;20027;-30
2023/08/23 11:03:08;;;;;;;8.10;5.30;;;;;;;33.41;25.61;96480.63;5075602;28;20024;-30
2023/08/23 11:05:34;;;;;;;6.68;5.43;;;;;;;33.28;25.42;96478.91;5080753;28;20027;-31
2023/08/23 11:08:01;;;;;;;6.50;5.68;;;;;;;33.24;25.83;96475.03;5086994;28;20032;-30
2023/08/23 11:10:26;;;;;;;7.75;5.28;;;;;;;33.27;25.80;96476.66;5080986;28;20046;-31
2023/08/23 11:12:52;;;;;;;7.03;5.13;;;;;;;33.25;25.72;96473.72;5080504;28;20025;-30
2023/08/23 11:15:20;;;;;;;5.25;4.60;;;;;;;33.27;26.24;96471.03;5079894;28;20020;-31
2023/08/23 11:17:46;;;;;;;10.00;5.00;;;;;;;33.31;25.93;96474.19;5080431;28;20024;-31
2023/08/23 11:20:12;;;;;;;6.40;5.20;;;;;;;33.27;26.02;96466.16;5079576;28;20020;-30
2023/08/23 11:22:37;;;;;;;6.22;5.07;;;;;;;33.30;25.78;96465.00;5075147;28;20028;-31
2023/08/23 11:25:03;;;;;;;6.95;5.43;;;;;;;33.25;25.94;96457.59;5086497;28;20504;-30
2023/08/23 11:27:29;;;;;;;5.80;5.18;;;;;;;33.30;26.09;96459.38;5080506;28;20024;-30
2023/08/23 11:29:58;;;;;;;6.85;5.10;;;;;;;33.33;26.07;96463.84;5082630;28;20504;-30
2023/08/23 11:32:24;;;;;;;6.78;5.15;;;;;;;33.31;26.12;96448.88;5083729;28;20032;-30
2023/08/23 11:34:49;;;;;;;6.20;5.05;;;;;;;33.44;25.60;96443.66;5081223;28;20077;-31